sensor_id;sensor_type;location;lat;lon;timestamp;pressure;altitude;pressure_sealevel;temperature;humidity
61506;BME280;47366;51.916;4.574;2023-09-18T00:00:25;100686.03;;;18.63;100.00
61506;BME280;47366;51.916;4.574;2023-09-18T00:02:50;100669.88;;;18.60;100.00
61506;BME280;47366;51.916;4.574;2023-09-18T00:05:15;100681.25;;;18.65;100.00
61506;BME280;47366;51.916;4.574;2023-09-18T00:07:42;100665.09;;;18.62;99.83
61506;BME280;47366;51.916;4.574;2023-09-18T00:10:11;100672.16;;;18.65;100.00
61506;BME280;47366;51.916;4.574;2023-09-18T00:12:37;100664.78;;;18.65;100.00
61506;BME280;47366;51.916;4.574;2023-09-18T00:15:04;100649.66;;;18.61;100.00
61506;BME280;47366;51.916;4.574;2023-09-18T00:17:30;100646.91;;;18.61;100.00
61506;BME280;47366;51.916;4.574;2023-09-18T00:19:55;100636.97;;;18.60;100.00
61506;BME280;47366;51.916;4.574;2023-09-18T00:22:20;100635.94;;;18.61;100.00
61506;BME280;47366;51.916;4.574;2023-09-18T00:24:46;100638.78;;;18.70;100.00
61506;BME280;47366;51.916;4.574;2023-09-18T00:27:11;100641.84;;;18.66;100.00
61506;BME280;47366;51.916;4.574;2023-09-18T00:29:37;100643.09;;;18.72;100.00
61506;BME280;47366;51.916;4.574;2023-09-18T00:32:02;100625.53;;;18.65;100.00
61506;BME280;47366;51.916;4.574;2023-09-18T00:34:29;100621.28;;;18.71;99.99
61506;BME280;47366;51.916;4.574;2023-09-18T00:36:57;100605.16;;;18.67;100.00
61506;BME280;47366;51.916;4.574;2023-09-18T00:39:22;100600.22;;;18.71;100.00
61506;BME280;47366;51.916;4.574;2023-09-18T00:41:47;100597.50;;;18.71;100.00
61506;BME280;47366;51.916;4.574;2023-09-18T00:44:16;100567.78;;;18.66;99.91
61506;BME280;47366;51.916;4.574;2023-09-18T00:46:42;100565.88;;;18.67;100.00
61506;BME280;47366;51.916;4.574;2023-09-18T00:49:08;100541.34;;;18.65;100.00
61506;BME280;47366;51.916;4.574;2023-09-18T00:51:35;100535.69;;;18.67;100.00
61506;BME280;47366;51.916;4.574;2023-09-18T00:54:00;100535.38;;;18.70;100.00
61506;BME280;47366;51.916;4.574;2023-09-18T00:56:26;100537.28;;;18.70;100.00
61506;BME280;47366;51.916;4.574;2023-09-18T00:58:52;100537.59;;;18.66;100.00
61506;BME280;47366;51.916;4.574;2023-09-18T01:01:18;100531.22;;;18.66;100.00
61506;BME280;47366;51.916;4.574;2023-09-18T01:03:49;100533.66;;;18.69;100.00
61506;BME280;47366;51.916;4.574;2023-09-18T01:06:15;100526.28;;;18.70;100.00
61506;BME280;47366;51.916;4.574;2023-09-18T01:08:40;100519.38;;;18.65;100.00
61506;BME280;47366;51.916;4.574;2023-09-18T01:11:35;100531.06;;;18.67;100.00
61506;BME280;47366;51.916;4.574;2023-09-18T01:14:09;100537.28;;;18.70;100.00
61506;BME280;47366;51.916;4.574;2023-09-18T01:16:50;100539.88;;;18.71;100.00
61506;BME280;47366;51.916;4.574;2023-09-18T01:19:16;100529.19;;;18.68;100.00
61506;BME280;47366;51.916;4.574;2023-09-18T01:21:41;100540.72;;;18.72;100.00
61506;BME280;47366;51.916;4.574;2023-09-18T01:24:07;100531.06;;;18.67;100.00
61506;BME280;47366;51.916;4.574;2023-09-18T01:26:32;100541.25;;;18.75;100.00
61506;BME280;47366;51.916;4.574;2023-09-18T01:28:58;100533.50;;;18.71;100.00
61506;BME280;47366;51.916;4.574;2023-09-18T01:31:23;100534.22;;;18.73;100.00
61506;BME280;47366;51.916;4.574;2023-09-18T01:33:49;100531.13;;;18.76;100.00
61506;BME280;47366;51.916;4.574;2023-09-18T01:36:16;100515.72;;;18.75;100.00
61506;BME280;47366;51.916;4.574;2023-09-18T01:38:43;100516.44;;;18.77;100.00
61506;BME280;47366;51.916;4.574;2023-09-18T01:41:09;100509.19;;;18.76;100.00
61506;BME280;47366;51.916;4.574;2023-09-18T01:43:35;100512.22;;;18.82;100.00
61506;BME280;47366;51.916;4.574;2023-09-18T01:46:00;100515.81;;;18.83;100.00
61506;BME280;47366;51.916;4.574;2023-09-18T01:48:26;100513.25;;;18.81;100.00
61506;BME280;47366;51.916;4.574;2023-09-18T01:50:51;100514.56;;;18.77;99.40
61506;BME280;47366;51.916;4.574;2023-09-18T01:53:17;100525.41;;;18.79;99.60
61506;BME280;47366;51.916;4.574;2023-09-18T01:55:42;100523.66;;;18.78;99.41
61506;BME280;47366;51.916;4.574;2023-09-18T01:58:07;100526.41;;;18.78;99.96
61506;BME280;47366;51.916;4.574;2023-09-18T02:00:34;100539.13;;;18.79;100.00
61506;BME280;47366;51.916;4.574;2023-09-18T02:02:59;100539.97;;;18.79;100.00
61506;BME280;47366;51.916;4.574;2023-09-18T02:05:25;100536.50;;;18.77;100.00
61506;BME280;47366;51.916;4.574;2023-09-18T02:07:50;100548.06;;;18.81;100.00
61506;BME280;47366;51.916;4.574;2023-09-18T02:10:16;100536.19;;;18.80;100.00
61506;BME280;47366;51.916;4.574;2023-09-18T02:12:41;100539.38;;;18.85;100.00
61506;BME280;47366;51.916;4.574;2023-09-18T02:15:07;100540.38;;;18.84;100.00
61506;BME280;47366;51.916;4.574;2023-09-18T02:17:35;100539.38;;;18.85;100.00
61506;BME280;47366;51.916;4.574;2023-09-18T02:20:00;100537.31;;;18.87;100.00
61506;BME280;47366;51.916;4.574;2023-09-18T02:22:31;100533.09;;;18.93;100.00
61506;BME280;47366;51.916;4.574;2023-09-18T02:24:57;100528.31;;;18.95;100.00
61506;BME280;47366;51.916;4.574;2023-09-18T02:27:23;100517.16;;;18.97;100.00
61506;BME280;47366;51.916;4.574;2023-09-18T02:29:48;100519.75;;;18.98;100.00
61506;BME280;47366;51.916;4.574;2023-09-18T02:32:15;100496.94;;;18.98;100.00
61506;BME280;47366;51.916;4.574;2023-09-18T02:34:40;100494.91;;;19.00;100.00
61506;BME280;47366;51.916;4.574;2023-09-18T02:37:05;100480.28;;;18.99;100.00
61506;BME280;47366;51.916;4.574;2023-09-18T02:39:31;100467.75;;;18.97;100.00
61506;BME280;47366;51.916;4.574;2023-09-18T02:41:56;100459.88;;;19.02;100.00
61506;BME280;47366;51.916;4.574;2023-09-18T02:44:22;100457.00;;;19.03;100.00
61506;BME280;47366;51.916;4.574;2023-09-18T02:46:47;100440.84;;;19.00;100.00
61506;BME280;47366;51.916;4.574;2023-09-18T02:49:12;100409.09;;;18.98;100.00
61506;BME280;47366;51.916;4.574;2023-09-18T02:51:37;100408.44;;;19.04;100.00
61506;BME280;47366;51.916;4.574;2023-09-18T02:54:03;100408.75;;;19.01;100.00
61506;BME280;47366;51.916;4.574;2023-09-18T02:56:28;100394.72;;;19.04;100.00
61506;BME280;47366;51.916;4.574;2023-09-18T02:58:54;100396.59;;;19.03;100.00
61506;BME280;47366;51.916;4.574;2023-09-18T03:01:19;100401.56;;;19.00;100.00
61506;BME280;47366;51.916;4.574;2023-09-18T03:03:44;100400.69;;;18.99;100.00
61506;BME280;47366;51.916;4.574;2023-09-18T03:06:10;100382.50;;;18.98;100.00
61506;BME280;47366;51.916;4.574;2023-09-18T03:08:35;100382.16;;;19.01;100.00
61506;BME280;47366;51.916;4.574;2023-09-18T03:11:00;100391.44;;;19.00;100.00
61506;BME280;47366;51.916;4.574;2023-09-18T03:13:30;100398.41;;;18.95;100.00
61506;BME280;47366;51.916;4.574;2023-09-18T03:15:56;100434.50;;;19.00;100.00
61506;BME280;47366;51.916;4.574;2023-09-18T03:18:21;100457.47;;;18.99;100.00
61506;BME280;47366;51.916;4.574;2023-09-18T03:20:47;100457.78;;;18.96;100.00
61506;BME280;47366;51.916;4.574;2023-09-18T03:23:13;100457.09;;;18.94;100.00
61506;BME280;47366;51.916;4.574;2023-09-18T03:25:39;100433.63;;;18.99;100.00
61506;BME280;47366;51.916;4.574;2023-09-18T03:28:04;100428.84;;;19.01;100.00
61506;BME280;47366;51.916;4.574;2023-09-18T03:30:30;100437.31;;;19.08;100.00
61506;BME280;47366;51.916;4.574;2023-09-18T03:32:55;100448.28;;;19.08;100.00
61506;BME280;47366;51.916;4.574;2023-09-18T03:35:21;100450.88;;;19.09;100.00
61506;BME280;47366;51.916;4.574;2023-09-18T03:37:47;100444.50;;;19.09;100.00
61506;BME280;47366;51.916;4.574;2023-09-18T03:40:13;100430.63;;;19.10;100.00
61506;BME280;47366;51.916;4.574;2023-09-18T03:42:39;100433.03;;;19.14;100.00
61506;BME280;47366;51.916;4.574;2023-09-18T03:45:08;100457.75;;;19.14;100.00
61506;BME280;47366;51.916;4.574;2023-09-18T03:47:35;100467.03;;;19.13;100.00
61506;BME280;47366;51.916;4.574;2023-09-18T03:50:03;100489.00;;;19.13;100.00
61506;BME280;47366;51.916;4.574;2023-09-18T03:52:29;100465.47;;;19.10;100.00
61506;BME280;47366;51.916;4.574;2023-09-18T03:54:54;100463.44;;;19.12;100.00
61506;BME280;47366;51.916;4.574;2023-09-18T03:57:20;100442.31;;;19.13;100.00
61506;BME280;47366;51.916;4.574;2023-09-18T03:59:45;100415.66;;;19.05;100.00
61506;BME280;47366;51.916;4.574;2023-09-18T04:02:10;100405.06;;;19.10;100.00
61506;BME280;47366;51.916;4.574;2023-09-18T04:04:36;100378.84;;;19.16;100.00
61506;BME280;47366;51.916;4.574;2023-09-18T04:07:05;100354.44;;;19.13;100.00
61506;BME280;47366;51.916;4.574;2023-09-18T04:09:31;100351.56;;;19.14;100.00
61506;BME280;47366;51.916;4.574;2023-09-18T04:11:56;100365.81;;;19.18;100.00
61506;BME280;47366;51.916;4.574;2023-09-18T04:14:22;100349.47;;;19.16;100.00
61506;BME280;47366;51.916;4.574;2023-09-18T04:16:47;100359.47;;;19.17;100.00
61506;BME280;47366;51.916;4.574;2023-09-18T04:19:12;100350.19;;;19.18;100.00
61506;BME280;47366;51.916;4.574;2023-09-18T04:21:38;100350.19;;;19.18;100.00
61506;BME280;47366;51.916;4.574;2023-09-18T04:24:04;100341.59;;;19.13;100.00
61506;BME280;47366;51.916;4.574;2023-09-18T04:26:29;100335.94;;;19.15;100.00
61506;BME280;47366;51.916;4.574;2023-09-18T04:28:56;100347.44;;;19.18;100.00
61506;BME280;47366;51.916;4.574;2023-09-18T04:31:22;100350.66;;;19.14;100.00
61506;BME280;47366;51.916;4.574;2023-09-18T04:33:47;100367.00;;;19.15;100.00
61506;BME280;47366;51.916;4.574;2023-09-18T04:36:13;100364.41;;;19.14;100.00
61506;BME280;47366;51.916;4.574;2023-09-18T04:38:39;100353.03;;;19.08;100.00
61506;BME280;47366;51.916;4.574;2023-09-18T04:41:04;100355.78;;;19.08;100.00
61506;BME280;47366;51.916;4.574;2023-09-18T04:43:33;100364.22;;;19.07;100.00
61506;BME280;47366;51.916;4.574;2023-09-18T04:45:58;100373.53;;;19.14;100.00
61506;BME280;47366;51.916;4.574;2023-09-18T04:48:23;100360.59;;;19.06;100.00
61506;BME280;47366;51.916;4.574;2023-09-18T04:50:49;100376.41;;;19.13;100.00
61506;BME280;47366;51.916;4.574;2023-09-18T04:53:14;100354.78;;;19.09;100.00
61506;BME280;47366;51.916;4.574;2023-09-18T04:55:40;100351.56;;;19.14;100.00
61506;BME280;47366;51.916;4.574;2023-09-18T04:58:05;100334.69;;;19.09;100.00
61506;BME280;47366;51.916;4.574;2023-09-18T05:00:32;100328.19;;;19.10;100.00
61506;BME280;47366;51.916;4.574;2023-09-18T05:02:59;100321.66;;;19.11;100.00
61506;BME280;47366;51.916;4.574;2023-09-18T05:05:26;100315.88;;;19.14;100.00
61506;BME280;47366;51.916;4.574;2023-09-18T05:07:52;100317.72;;;19.14;100.00
61506;BME280;47366;51.916;4.574;2023-09-18T05:10:17;100317.91;;;19.12;100.00
61506;BME280;47366;51.916;4.574;2023-09-18T05:12:42;100316.88;;;19.13;100.00
61506;BME280;47366;51.916;4.574;2023-09-18T05:15:08;100298.00;;;19.10;100.00
61506;BME280;47366;51.916;4.574;2023-09-18T05:17:48;100311.56;;;19.12;100.00
61506;BME280;47366;51.916;4.574;2023-09-18T05:20:17;100325.28;;;19.12;100.00
61506;BME280;47366;51.916;4.574;2023-09-18T05:22:43;100315.47;;;19.09;100.00
61506;BME280;47366;51.916;4.574;2023-09-18T05:25:09;100312.34;;;19.04;100.00
61506;BME280;47366;51.916;4.574;2023-09-18T05:27:36;100321.47;;;19.04;100.00
61506;BME280;47366;51.916;4.574;2023-09-18T05:30:02;100320.59;;;19.04;100.00
61506;BME280;47366;51.916;4.574;2023-09-18T05:32:27;100309.94;;;19.01;100.00
61506;BME280;47366;51.916;4.574;2023-09-18T05:34:52;100317.84;;;19.04;100.00
61506;BME280;47366;51.916;4.574;2023-09-18T05:37:18;100300.66;;;19.02;100.00
61506;BME280;47366;51.916;4.574;2023-09-18T05:39:43;100306.50;;;18.99;100.00
61506;BME280;47366;51.916;4.574;2023-09-18T05:42:08;100303.75;;;18.99;100.00
61506;BME280;47366;51.916;4.574;2023-09-18T05:44:34;100307.56;;;19.06;100.00
61506;BME280;47366;51.916;4.574;2023-09-18T05:46:59;100311.34;;;19.05;100.00
61506;BME280;47366;51.916;4.574;2023-09-18T05:49:25;100306.84;;;19.04;100.00
61506;BME280;47366;51.916;4.574;2023-09-18T05:51:50;100307.91;;;19.03;100.00
61506;BME280;47366;51.916;4.574;2023-09-18T05:54:15;100318.53;;;19.06;100.00
61506;BME280;47366;51.916;4.574;2023-09-18T05:56:41;100326.97;;;19.04;100.00
61506;BME280;47366;51.916;4.574;2023-09-18T05:59:07;100319.59;;;19.05;100.00
61506;BME280;47366;51.916;4.574;2023-09-18T06:01:32;100319.72;;;19.03;100.00
61506;BME280;47366;51.916;4.574;2023-09-18T06:03:58;100327.81;;;19.05;100.00
61506;BME280;47366;51.916;4.574;2023-09-18T06:06:24;100326.25;;;19.02;100.00
61506;BME280;47366;51.916;4.574;2023-09-18T06:08:52;100327.97;;;19.03;100.00
61506;BME280;47366;51.916;4.574;2023-09-18T06:11:20;100333.78;;;19.00;100.00
61506;BME280;47366;51.916;4.574;2023-09-18T06:13:45;100338.44;;;19.00;100.00
61506;BME280;47366;51.916;4.574;2023-09-18T06:16:11;100343.75;;;19.01;100.00
61506;BME280;47366;51.916;4.574;2023-09-18T06:18:36;100357.16;;;19.04;100.00
61506;BME280;47366;51.916;4.574;2023-09-18T06:21:03;100341.69;;;19.03;100.00
61506;BME280;47366;51.916;4.574;2023-09-18T06:23:29;100346.34;;;19.03;100.00
61506;BME280;47366;51.916;4.574;2023-09-18T06:25:54;100340.47;;;18.98;100.00
61506;BME280;47366;51.916;4.574;2023-09-18T06:28:22;100337.53;;;18.99;100.00
61506;BME280;47366;51.916;4.574;2023-09-18T06:30:47;100334.97;;;18.98;100.00
61506;BME280;47366;51.916;4.574;2023-09-18T06:33:13;100339.91;;;18.94;100.00
61506;BME280;47366;51.916;4.574;2023-09-18T06:35:39;100335.63;;;18.92;100.00
61506;BME280;47366;51.916;4.574;2023-09-18T06:38:05;100349.56;;;18.98;100.00
61506;BME280;47366;51.916;4.574;2023-09-18T06:40:31;100343.38;;;18.96;100.00
61506;BME280;47366;51.916;4.574;2023-09-18T06:43:00;100339.22;;;18.92;100.00
61506;BME280;47366;51.916;4.574;2023-09-18T06:45:26;100335.63;;;18.92;100.00
61506;BME280;47366;51.916;4.574;2023-09-18T06:47:52;100336.66;;;18.91;100.00
61506;BME280;47366;51.916;4.574;2023-09-18T06:50:18;100339.69;;;18.87;100.00
61506;BME280;47366;51.916;4.574;2023-09-18T06:52:44;100336.94;;;18.87;100.00
61506;BME280;47366;51.916;4.574;2023-09-18T06:55:09;100337.28;;;18.84;100.00
61506;BME280;47366;51.916;4.574;2023-09-18T06:57:35;100348.34;;;18.93;100.00
61506;BME280;47366;51.916;4.574;2023-09-18T07:00:00;100342.28;;;18.89;100.00
61506;BME280;47366;51.916;4.574;2023-09-18T07:02:26;100336.66;;;18.91;100.00
61506;BME280;47366;51.916;4.574;2023-09-18T07:04:52;100336.94;;;18.87;100.00
61506;BME280;47366;51.916;4.574;2023-09-18T07:07:17;100344.00;;;18.90;100.00
61506;BME280;47366;51.916;4.574;2023-09-18T07:09:50;100351.06;;;18.93;100.00
61506;BME280;47366;51.916;4.574;2023-09-18T07:12:15;100345.88;;;18.89;100.00
61506;BME280;47366;51.916;4.574;2023-09-18T07:14:40;100338.50;;;18.90;100.00
61506;BME280;47366;51.916;4.574;2023-09-18T07:17:06;100339.59;;;18.97;100.00
61506;BME280;47366;51.916;4.574;2023-09-18T07:19:31;100336.69;;;18.99;100.00
61506;BME280;47366;51.916;4.574;2023-09-18T07:21:57;100345.28;;;19.04;100.00
61506;BME280;47366;51.916;4.574;2023-09-18T07:24:24;100362.81;;;19.03;100.00
61506;BME280;47366;51.916;4.574;2023-09-18T07:26:49;100359.50;;;18.99;100.00
61506;BME280;47366;51.916;4.574;2023-09-18T07:29:15;100372.63;;;19.14;100.00
61506;BME280;47366;51.916;4.574;2023-09-18T07:31:44;100367.31;;;19.12;100.00
61506;BME280;47366;51.916;4.574;2023-09-18T07:34:10;100361.84;;;19.12;100.00
61506;BME280;47366;51.916;4.574;2023-09-18T07:36:36;100376.16;;;19.24;100.00
61506;BME280;47366;51.916;4.574;2023-09-18T07:39:02;100375.81;;;19.27;100.00
61506;BME280;47366;51.916;4.574;2023-09-18T07:41:27;100382.72;;;19.31;100.00
61506;BME280;47366;51.916;4.574;2023-09-18T07:43:52;100387.19;;;19.32;100.00
61506;BME280;47366;51.916;4.574;2023-09-18T07:46:18;100378.91;;;19.24;100.00
61506;BME280;47366;51.916;4.574;2023-09-18T07:48:43;100383.69;;;19.22;100.00
61506;BME280;47366;51.916;4.574;2023-09-18T07:51:12;100380.25;;;19.20;100.00
61506;BME280;47366;51.916;4.574;2023-09-18T07:53:37;100391.56;;;19.17;100.00
61506;BME280;47366;51.916;4.574;2023-09-18T07:56:03;100391.59;;;19.25;100.00
61506;BME280;47366;51.916;4.574;2023-09-18T07:58:30;100391.25;;;19.28;100.00
61506;BME280;47366;51.916;4.574;2023-09-18T08:00:56;100392.19;;;19.37;100.00
61506;BME280;47366;51.916;4.574;2023-09-18T08:03:23;100394.81;;;19.46;100.00
61506;BME280;47366;51.916;4.574;2023-09-18T08:05:52;100408.97;;;19.60;100.00
61506;BME280;47366;51.916;4.574;2023-09-18T08:08:19;100402.59;;;19.59;100.00
61506;BME280;47366;51.916;4.574;2023-09-18T08:10:49;100406.59;;;19.65;100.00
61506;BME280;47366;51.916;4.574;2023-09-18T08:13:15;100405.56;;;19.66;99.86
61506;BME280;47366;51.916;4.574;2023-09-18T08:15:41;100401.00;;;19.83;99.70
61506;BME280;47366;51.916;4.574;2023-09-18T08:20:32;100397.63;;;19.89;99.30
61506;BME280;47366;51.916;4.574;2023-09-18T08:22:58;100412.06;;;19.91;98.13
61506;BME280;47366;51.916;4.574;2023-09-18T08:25:26;100414.25;;;19.87;98.20
61506;BME280;47366;51.916;4.574;2023-09-18T08:27:51;100409.13;;;19.92;98.08
61506;BME280;47366;51.916;4.574;2023-09-18T08:30:17;100422.56;;;20.04;97.99
61506;BME280;47366;51.916;4.574;2023-09-18T08:32:46;100419.81;;;19.96;97.00
61506;BME280;47366;51.916;4.574;2023-09-18T08:35:12;100415.66;;;19.91;97.20
61506;BME280;47366;51.916;4.574;2023-09-18T08:37:37;100418.06;;;19.94;98.16
61506;BME280;47366;51.916;4.574;2023-09-18T08:40:03;100409.47;;;19.89;97.55
61506;BME280;47366;51.916;4.574;2023-09-18T08:42:36;100418.22;;;19.85;97.71
61506;BME280;47366;51.916;4.574;2023-09-18T08:45:08;100415.44;;;19.77;97.47
61506;BME280;47366;51.916;4.574;2023-09-18T08:47:38;100428.31;;;19.76;97.51
61506;BME280;47366;51.916;4.574;2023-09-18T08:50:05;100429.66;;;19.72;97.65
61506;BME280;47366;51.916;4.574;2023-09-18T08:52:34;100423.63;;;19.68;98.18
61506;BME280;47366;51.916;4.574;2023-09-18T08:55:01;100428.56;;;19.65;98.20
61506;BME280;47366;51.916;4.574;2023-09-18T08:57:27;100443.31;;;19.64;97.66
61506;BME280;47366;51.916;4.574;2023-09-18T08:59:54;100426.94;;;19.54;97.93
61506;BME280;47366;51.916;4.574;2023-09-18T09:02:19;100439.13;;;19.51;97.67
61506;BME280;47366;51.916;4.574;2023-09-18T09:04:45;100442.84;;;19.42;97.40
61506;BME280;47366;51.916;4.574;2023-09-18T09:07:10;100456.44;;;19.44;98.00
61506;BME280;47366;51.916;4.574;2023-09-18T09:09:36;100456.53;;;19.34;98.04
61506;BME280;47366;51.916;4.574;2023-09-18T09:12:01;100464.44;;;19.37;98.06
61506;BME280;47366;51.916;4.574;2023-09-18T09:14:26;100458.09;;;19.37;98.41
61506;BME280;47366;51.916;4.574;2023-09-18T09:16:56;100456.53;;;19.34;98.02
61506;BME280;47366;51.916;4.574;2023-09-18T09:19:35;100449.34;;;19.33;97.52
61506;BME280;47366;51.916;4.574;2023-09-18T09:22:07;100456.22;;;19.37;96.73
61506;BME280;47366;51.916;4.574;2023-09-18T09:24:39;100464.16;;;19.40;96.70
61506;BME280;47366;51.916;4.574;2023-09-18T09:27:04;100465.16;;;19.39;96.04
61506;BME280;47366;51.916;4.574;2023-09-18T09:29:30;100455.84;;;19.32;96.18
61506;BME280;47366;51.916;4.574;2023-09-18T09:31:56;100478.88;;;19.39;96.14
61506;BME280;47366;51.916;4.574;2023-09-18T09:34:36;100466.19;;;19.38;95.63
61506;BME280;47366;51.916;4.574;2023-09-18T09:37:02;100464.16;;;19.40;96.13
61506;BME280;47366;51.916;4.574;2023-09-18T09:39:29;100461.13;;;19.51;95.61
61506;BME280;47366;51.916;4.574;2023-09-18T09:42:02;100457.50;;;19.69;95.42
61506;BME280;47366;51.916;4.574;2023-09-18T09:44:31;100468.47;;;19.69;94.73
61506;BME280;47366;51.916;4.574;2023-09-18T09:46:59;100473.16;;;19.77;94.34
61506;BME280;47366;51.916;4.574;2023-09-18T09:49:24;100461.78;;;19.71;94.81
61506;BME280;47366;51.916;4.574;2023-09-18T09:51:53;100466.50;;;19.87;93.16
61506;BME280;47366;51.916;4.574;2023-09-18T09:54:32;100468.75;;;20.34;93.09
61506;BME280;47366;51.916;4.574;2023-09-18T09:57:02;100476.78;;;20.62;90.93
61506;BME280;47366;51.916;4.574;2023-09-18T09:59:28;100475.75;;;20.79;90.60
61506;BME280;47366;51.916;4.574;2023-09-18T10:01:55;100473.88;;;20.88;88.87
61506;BME280;47366;51.916;4.574;2023-09-18T10:04:22;100467.19;;;21.07;87.57
61506;BME280;47366;51.916;4.574;2023-09-18T10:06:57;100463.03;;;21.36;84.64
61506;BME280;47366;51.916;4.574;2023-09-18T10:09:26;100478.69;;;21.60;84.11
61506;BME280;47366;51.916;4.574;2023-09-18T10:11:54;100479.91;;;21.57;84.36
61506;BME280;47366;51.916;4.574;2023-09-18T10:14:30;100466.44;;;21.38;82.20
61506;BME280;47366;51.916;4.574;2023-09-18T10:16:56;100473.88;;;21.29;85.00
61506;BME280;47366;51.916;4.574;2023-09-18T10:19:33;100463.22;;;21.26;85.49
61506;BME280;47366;51.916;4.574;2023-09-18T10:22:14;100467.66;;;21.35;84.90
61506;BME280;47366;51.916;4.574;2023-09-18T10:24:46;100458.50;;;21.68;84.11
61506;BME280;47366;51.916;4.574;2023-09-18T10:27:13;100460.28;;;22.00;81.91
61506;BME280;47366;51.916;4.574;2023-09-18T10:29:41;100457.72;;;21.98;81.36
61506;BME280;47366;51.916;4.574;2023-09-18T10:32:07;100462.16;;;22.08;80.29
61506;BME280;47366;51.916;4.574;2023-09-18T10:34:34;100468.00;;;22.21;79.76
61506;BME280;47366;51.916;4.574;2023-09-18T10:37:01;100446.91;;;22.28;77.38
61506;BME280;47366;51.916;4.574;2023-09-18T10:39:35;100466.72;;;22.63;77.47
61506;BME280;47366;51.916;4.574;2023-09-18T10:42:01;100455.19;;;22.82;77.16
61506;BME280;47366;51.916;4.574;2023-09-18T10:44:28;100460.84;;;22.89;74.71
61506;BME280;47366;51.916;4.574;2023-09-18T10:46:55;100455.06;;;22.76;75.98
61506;BME280;47366;51.916;4.574;2023-09-18T10:49:21;100451.38;;;22.83;74.71
61506;BME280;47366;51.916;4.574;2023-09-18T10:51:47;100457.53;;;22.94;76.34
61506;BME280;47366;51.916;4.574;2023-09-18T10:54:28;100452.06;;;22.85;74.80
61506;BME280;47366;51.916;4.574;2023-09-18T10:56:55;100459.47;;;22.39;75.32
61506;BME280;47366;51.916;4.574;2023-09-18T10:59:21;100455.94;;;22.22;77.40
61506;BME280;47366;51.916;4.574;2023-09-18T11:01:47;100460.72;;;22.20;78.08
61506;BME280;47366;51.916;4.574;2023-09-18T11:04:13;100455.28;;;22.03;76.66
61506;BME280;47366;51.916;4.574;2023-09-18T11:09:25;100457.56;;;21.92;77.61
61506;BME280;47366;51.916;4.574;2023-09-18T11:14:44;100464.69;;;21.78;77.64
61506;BME280;47366;51.916;4.574;2023-09-18T11:22:59;100455.81;;;21.99;75.09
61506;BME280;47366;51.916;4.574;2023-09-18T11:28:03;100448.16;;;21.70;76.65
61506;BME280;47366;51.916;4.574;2023-09-18T11:30:33;100447.28;;;22.25;75.94
61506;BME280;47366;51.916;4.574;2023-09-18T11:33:02;100440.72;;;22.57;74.05
61506;BME280;47366;51.916;4.574;2023-09-18T11:35:27;100435.59;;;22.92;74.48
61506;BME280;47366;51.916;4.574;2023-09-18T11:38:07;100431.50;;;23.11;71.85
61506;BME280;47366;51.916;4.574;2023-09-18T11:40:34;100434.22;;;23.19;71.17
61506;BME280;47366;51.916;4.574;2023-09-18T11:43:23;100424.78;;;23.28;70.76
61506;BME280;47366;51.916;4.574;2023-09-18T11:45:53;100421.97;;;23.14;71.42
61506;BME280;47366;51.916;4.574;2023-09-18T11:48:20;100423.91;;;23.13;71.14
61506;BME280;47366;51.916;4.574;2023-09-18T11:50:47;100415.16;;;23.24;69.99
61506;BME280;47366;51.916;4.574;2023-09-18T11:53:15;100418.13;;;23.38;67.27
61506;BME280;47366;51.916;4.574;2023-09-18T11:55:43;100429.38;;;23.51;69.88
61506;BME280;47366;51.916;4.574;2023-09-18T11:58:08;100420.78;;;23.31;66.48
61506;BME280;47366;51.916;4.574;2023-09-18T12:00:35;100424.44;;;22.85;69.05
61506;BME280;47366;51.916;4.574;2023-09-18T12:03:20;100415.25;;;22.70;69.06
61506;BME280;47366;51.916;4.574;2023-09-18T12:05:55;100434.19;;;22.73;69.17
61506;BME280;47366;51.916;4.574;2023-09-18T12:08:22;100417.25;;;22.76;68.93
61506;BME280;47366;51.916;4.574;2023-09-18T12:10:51;100411.81;;;22.91;69.33
61506;BME280;47366;51.916;4.574;2023-09-18T12:13:17;100390.75;;;23.13;69.03
61506;BME280;47366;51.916;4.574;2023-09-18T12:15:43;100405.97;;;23.24;67.25
61506;BME280;47366;51.916;4.574;2023-09-18T12:18:09;100399.97;;;23.05;68.91
61506;BME280;47366;51.916;4.574;2023-09-18T12:20:37;100404.84;;;23.18;69.02
61506;BME280;47366;51.916;4.574;2023-09-18T12:23:03;100408.19;;;23.28;68.93
61506;BME280;47366;51.916;4.574;2023-09-18T12:25:29;100396.69;;;23.40;67.72
61506;BME280;47366;51.916;4.574;2023-09-18T12:27:55;100399.25;;;23.56;67.96
61506;BME280;47366;51.916;4.574;2023-09-18T12:30:21;100400.13;;;23.42;67.43
61506;BME280;47366;51.916;4.574;2023-09-18T12:32:51;100398.69;;;23.46;68.58
61506;BME280;47366;51.916;4.574;2023-09-18T12:35:17;100403.25;;;23.39;66.80
61506;BME280;47366;51.916;4.574;2023-09-18T12:37:46;100394.97;;;23.39;67.00
61506;BME280;47366;51.916;4.574;2023-09-18T12:40:29;100385.22;;;23.13;67.25
61506;BME280;47366;51.916;4.574;2023-09-18T12:42:58;100383.41;;;23.05;69.20
61506;BME280;47366;51.916;4.574;2023-09-18T12:45:25;100389.88;;;22.89;68.66
61506;BME280;47366;51.916;4.574;2023-09-18T12:47:53;100382.22;;;23.00;69.06
61506;BME280;47366;51.916;4.574;2023-09-18T12:50:19;100385.03;;;23.15;68.65
61506;BME280;47366;51.916;4.574;2023-09-18T12:52:44;100386.56;;;23.17;66.73
61506;BME280;47366;51.916;4.574;2023-09-18T12:55:26;100373.72;;;23.39;66.62
61506;BME280;47366;51.916;4.574;2023-09-18T12:57:53;100371.97;;;23.38;65.01